createdAt,value
2022-12-28T00:01:53.543Z,0.73
2022-12-28T00:04:21.349Z,0.67
2022-12-28T00:06:50.767Z,0.73
2022-12-28T00:09:18.324Z,0.69
2022-12-28T00:11:46.414Z,0.74
2022-12-28T00:14:14.067Z,0.70
2022-12-28T00:16:42.693Z,0.76
2022-12-28T00:19:15.212Z,0.84
2022-12-28T00:21:43.749Z,0.86
2022-12-28T00:24:18.788Z,0.82
2022-12-28T00:26:46.739Z,0.58
2022-12-28T00:29:14.773Z,0.52
2022-12-28T00:31:42.444Z,0.52
2022-12-28T00:34:10.062Z,0.33
2022-12-28T00:37:09.901Z,0.41
2022-12-28T00:39:25.499Z,0.41
2022-12-28T00:41:53.924Z,0.47
2022-12-28T00:44:21.490Z,0.48
2022-12-28T00:46:49.798Z,0.52
2022-12-28T00:49:18.979Z,0.42
2022-12-28T00:51:46.572Z,0.43
2022-12-28T00:54:14.178Z,0.40
2022-12-28T00:56:45.511Z,0.42
2022-12-28T00:59:13.064Z,0.47
2022-12-28T01:01:40.803Z,0.43
2022-12-28T01:04:08.822Z,0.45
2022-12-28T01:06:36.293Z,0.44
2022-12-28T01:09:05.121Z,0.36
2022-12-28T01:11:32.923Z,0.28
2022-12-28T01:14:01.670Z,0.28
2022-12-28T01:16:34.653Z,0.23
2022-12-28T01:19:06.173Z,0.31
2022-12-28T01:21:35.364Z,0.27
2022-12-28T01:24:05.507Z,0.37
2022-12-28T01:26:33.491Z,0.40
2022-12-28T01:29:01.257Z,0.39
2022-12-28T01:31:32.674Z,0.40
2022-12-28T01:34:00.596Z,0.37
2022-12-28T01:36:31.496Z,0.34
2022-12-28T01:39:01.180Z,0.31
2022-12-28T01:41:29.998Z,0.27
2022-12-28T01:43:57.486Z,0.29
2022-12-28T01:46:31.161Z,0.27
2022-12-28T01:49:05.851Z,0.34
2022-12-28T01:51:36.871Z,0.28
2022-12-28T01:54:04.940Z,0.32
2022-12-28T01:56:32.723Z,0.38
2022-12-28T01:59:00.491Z,0.40
2022-12-28T02:01:28.229Z,0.37
2022-12-28T02:03:56.126Z,0.41
2022-12-28T02:06:25.660Z,0.39
2022-12-28T02:09:01.985Z,0.36
2022-12-28T02:11:30.208Z,0.41
2022-12-28T02:13:58.989Z,0.39
2022-12-28T02:16:28.305Z,0.39
2022-12-28T02:18:56.550Z,0.39
2022-12-28T02:21:42.606Z,0.37
2022-12-28T02:25:12.910Z,0.40
2022-12-28T02:28:04.094Z,0.31
2022-12-28T02:30:35.789Z,0.43
2022-12-28T02:33:13.463Z,0.48
2022-12-28T02:36:02.792Z,0.55
2022-12-28T02:38:40.737Z,0.56
2022-12-28T02:41:14.959Z,0.59
2022-12-28T02:43:42.610Z,0.56
2022-12-28T02:46:38.809Z,0.50
2022-12-28T02:49:39.965Z,0.55
2022-12-28T02:52:07.927Z,0.47
2022-12-28T02:55:32.922Z,0.48
2022-12-28T02:58:07.072Z,0.45
2022-12-28T03:00:49.077Z,0.60
2022-12-28T03:03:34.498Z,0.63
2022-12-28T03:06:30.597Z,0.59
2022-12-28T03:09:07.605Z,0.59
2022-12-28T03:12:09.117Z,0.65
2022-12-28T03:14:54.188Z,0.68
2022-12-28T03:17:43.427Z,0.65
2022-12-28T03:20:37.178Z,0.73
2022-12-28T03:23:24.857Z,0.96
2022-12-28T03:26:12.746Z,0.96
2022-12-28T03:29:02.446Z,0.94
2022-12-28T03:31:31.225Z,0.88
2022-12-28T03:34:07.104Z,0.91
2022-12-28T03:36:50.770Z,0.87
2022-12-28T03:39:37.030Z,0.73
2022-12-28T03:42:53.328Z,0.78
2022-12-28T03:45:45.127Z,0.71
2022-12-28T03:48:15.953Z,0.64
2022-12-28T03:50:47.435Z,0.58
2022-12-28T03:53:17.704Z,0.51
2022-12-28T03:55:45.347Z,0.59
2022-12-28T03:58:13.171Z,0.56
2022-12-28T04:00:41.014Z,0.63
2022-12-28T04:03:08.966Z,0.66
2022-12-28T04:05:36.756Z,0.70
2022-12-28T04:08:04.727Z,0.65
2022-12-28T04:10:32.484Z,0.47
2022-12-28T04:12:59.996Z,0.43
2022-12-28T04:15:28.070Z,0.30
2022-12-28T04:17:55.998Z,0.39
2022-12-28T04:20:23.889Z,0.42
2022-12-28T04:22:51.625Z,0.40
2022-12-28T04:25:19.844Z,0.46
2022-12-28T04:27:48.389Z,0.31
2022-12-28T04:30:17.461Z,0.19
2022-12-28T04:32:45.303Z,0.09
2022-12-28T04:35:13.808Z,0.03
2022-12-28T04:37:43.383Z,0.04
2022-12-28T04:40:11.416Z,0.05
2022-12-28T04:42:38.986Z,0.02
2022-12-28T04:45:06.905Z,-0.07
2022-12-28T04:47:34.698Z,-0.17
2022-12-28T04:50:07.557Z,-0.16
2022-12-28T04:52:35.386Z,-0.14
2022-12-28T04:55:02.949Z,-0.12
2022-12-28T04:57:30.628Z,-0.03
2022-12-28T04:59:58.651Z,0.00
2022-12-28T05:02:26.304Z,-0.08
2022-12-28T05:04:53.916Z,-0.23
2022-12-28T05:07:21.737Z,-0.33
2022-12-28T05:09:49.407Z,-0.39
2022-12-28T05:12:16.962Z,-0.50
2022-12-28T05:14:44.813Z,-0.60
2022-12-28T05:17:12.540Z,-0.57
2022-12-28T05:19:40.125Z,-0.50
2022-12-28T05:22:11.960Z,-0.57
2022-12-28T05:24:39.603Z,-0.52
2022-12-28T05:27:07.411Z,-0.48
2022-12-28T05:29:35.606Z,-0.37
2022-12-28T05:32:03.074Z,-0.38
2022-12-28T05:34:30.629Z,-0.44
2022-12-28T05:36:58.484Z,-0.47
2022-12-28T05:39:26.118Z,-0.51
2022-12-28T05:41:53.735Z,-0.51
2022-12-28T05:44:21.639Z,-0.45
2022-12-28T05:46:49.321Z,-0.40
2022-12-28T05:49:16.829Z,-0.48
2022-12-28T05:51:44.626Z,-0.56
2022-12-28T05:54:12.092Z,-0.73
2022-12-28T05:56:40.918Z,-1.06
2022-12-28T05:59:08.891Z,-0.95
2022-12-28T06:01:39.058Z,-0.97
2022-12-28T06:04:09.277Z,-0.88
2022-12-28T06:06:36.719Z,-0.84
2022-12-28T06:09:04.533Z,-0.78
2022-12-28T06:11:32.612Z,-0.81
2022-12-28T06:14:00.355Z,-0.80
2022-12-28T06:16:29.886Z,-0.78
2022-12-28T06:18:58.395Z,-0.79
2022-12-28T06:21:28.326Z,-0.77
2022-12-28T06:23:59.916Z,-0.71
2022-12-28T06:26:29.786Z,-0.68
2022-12-28T06:28:58.020Z,-0.78
2022-12-28T06:31:27.639Z,-0.84
2022-12-28T06:33:57.416Z,-0.95
2022-12-28T06:36:30.538Z,-0.96
2022-12-28T06:38:59.748Z,-0.97
2022-12-28T06:41:27.911Z,-1.12
2022-12-28T06:43:55.952Z,-1.35
2022-12-28T06:46:26.853Z,-1.37
2022-12-28T06:48:54.598Z,-1.37
2022-12-28T06:51:24.689Z,-1.32
2022-12-28T06:53:53.505Z,-1.25
2022-12-28T06:56:24.865Z,-1.18
2022-12-28T06:58:57.010Z,-1.29
2022-12-28T07:01:35.911Z,-1.44
2022-12-28T07:04:05.946Z,-1.30
2022-12-28T07:06:38.637Z,-1.17
2022-12-28T07:09:09.454Z,-1.15
2022-12-28T07:11:37.378Z,-1.10
2022-12-28T07:14:05.789Z,-1.06
2022-12-28T07:19:01.008Z,-1.00
2022-12-28T07:21:34.259Z,-0.91
2022-12-28T07:24:03.068Z,-1.00
2022-12-28T07:26:32.750Z,-0.98
2022-12-28T07:29:02.519Z,-0.87
2022-12-28T07:31:41.972Z,-0.81
2022-12-28T07:34:12.643Z,-0.80
2022-12-28T07:36:40.599Z,-0.76
2022-12-28T07:39:08.266Z,-0.72
2022-12-28T07:41:38.830Z,-0.69
2022-12-28T07:44:06.861Z,-0.68
2022-12-28T07:46:36.315Z,-0.63
2022-12-28T07:49:04.400Z,-0.52
2022-12-28T07:51:35.128Z,-0.47
2022-12-28T07:54:03.198Z,-0.41
2022-12-28T07:59:01.592Z,-0.22
2022-12-28T08:01:32.306Z,-0.12
2022-12-28T08:04:06.025Z,-0.09
2022-12-28T08:06:36.313Z,-0.10
2022-12-28T08:09:05.608Z,0.05
2022-12-28T08:11:35.605Z,0.12
2022-12-28T08:14:04.028Z,0.24
2022-12-28T08:16:38.031Z,0.26
2022-12-28T08:19:06.614Z,0.26
2022-12-28T08:21:40.054Z,0.34
2022-12-28T08:24:09.327Z,0.37
2022-12-28T08:26:39.414Z,0.46
2022-12-28T08:29:09.629Z,0.45
2022-12-28T08:31:39.545Z,0.53
2022-12-28T08:34:08.340Z,0.59
2022-12-28T08:36:35.899Z,0.75
2022-12-28T08:39:04.592Z,0.85
2022-12-28T08:41:33.339Z,0.86
2022-12-28T08:44:00.940Z,0.89
2022-12-28T08:46:31.386Z,1.04
2022-12-28T08:49:01.879Z,0.99
2022-12-28T08:51:33.445Z,1.19
2022-12-28T08:54:01.945Z,1.28
2022-12-28T08:56:32.698Z,1.34
2022-12-28T08:59:00.554Z,1.48
2022-12-28T09:01:43.119Z,1.52
2022-12-28T09:04:22.128Z,1.59
2022-12-28T09:06:50.487Z,1.61
2022-12-28T09:09:19.856Z,1.75
2022-12-28T09:11:47.890Z,1.82
2022-12-28T09:14:24.386Z,1.94
2022-12-28T09:16:53.562Z,1.95
2022-12-28T09:19:22.105Z,2.07
2022-12-28T09:21:53.553Z,2.16
2022-12-28T09:24:22.716Z,2.20
2022-12-28T09:26:52.973Z,2.35
2022-12-28T09:29:21.116Z,2.41
2022-12-28T09:31:48.724Z,2.45
2022-12-28T09:34:35.643Z,2.49
2022-12-28T09:37:04.163Z,2.57
2022-12-28T09:39:31.810Z,2.66
2022-12-28T09:42:17.842Z,2.76
2022-12-28T09:44:53.647Z,2.82
2022-12-28T09:47:35.903Z,2.90
2022-12-28T09:50:18.941Z,2.94
2022-12-28T09:53:03.407Z,3.10
2022-12-28T09:55:36.474Z,3.10
2022-12-28T09:58:06.053Z,3.17
2022-12-28T10:00:44.016Z,3.28
2022-12-28T10:03:16.564Z,3.43
2022-12-28T10:05:44.565Z,3.42
2022-12-28T10:08:15.918Z,3.48
2022-12-28T10:10:48.646Z,3.51
2022-12-28T10:13:53.637Z,3.61
2022-12-28T10:16:18.346Z,3.59
2022-12-28T10:18:47.322Z,3.65
2022-12-28T10:21:20.387Z,3.76
2022-12-28T10:24:28.974Z,3.86
2022-12-28T10:26:38.356Z,3.99
2022-12-28T10:29:10.309Z,4.00
2022-12-28T10:31:39.777Z,3.97
2022-12-28T10:34:22.719Z,4.21
2022-12-28T10:36:51.036Z,4.24
2022-12-28T10:39:30.113Z,4.23
2022-12-28T10:41:58.460Z,4.31
2022-12-28T10:44:40.653Z,4.39
2022-12-28T10:47:45.183Z,4.42
2022-12-28T10:50:44.988Z,4.62
2022-12-28T10:53:25.792Z,4.86
2022-12-28T10:56:12.233Z,4.88
2022-12-28T10:58:42.698Z,4.91
2022-12-28T11:01:13.677Z,4.95
2022-12-28T11:04:03.125Z,4.99
2022-12-28T11:06:33.449Z,5.04
2022-12-28T11:09:16.484Z,5.15
2022-12-28T11:11:46.105Z,5.10
2022-12-28T11:14:13.731Z,5.19
2022-12-28T11:16:42.057Z,5.13
2022-12-28T11:19:11.479Z,5.18
2022-12-28T11:21:39.975Z,5.35
2022-12-28T11:24:10.628Z,5.27
2022-12-28T11:26:40.952Z,5.28
2022-12-28T11:29:11.224Z,5.26
2022-12-28T11:31:46.680Z,5.25
2022-12-28T11:34:18.812Z,5.23
2022-12-28T11:36:47.175Z,5.31
2022-12-28T11:39:31.291Z,5.29
2022-12-28T11:42:37.258Z,5.37
2022-12-28T11:44:49.872Z,5.43
2022-12-28T11:47:17.591Z,5.51
2022-12-28T11:49:47.338Z,5.57
2022-12-28T11:52:17.716Z,5.67
2022-12-28T11:54:56.104Z,5.89
2022-12-28T11:57:40.725Z,5.82
2022-12-28T12:00:37.746Z,5.76
2022-12-28T12:03:05.494Z,5.75
2022-12-28T12:05:36.611Z,5.76
2022-12-28T12:08:16.595Z,5.71
2022-12-28T12:10:46.659Z,5.65
2022-12-28T12:13:26.497Z,5.58
2022-12-28T12:16:05.388Z,5.59
2022-12-28T12:18:43.587Z,5.53
2022-12-28T12:21:40.503Z,5.51
2022-12-28T12:24:29.100Z,5.45
2022-12-28T12:27:13.500Z,5.37
2022-12-28T12:29:44.838Z,5.31
2022-12-28T12:32:25.677Z,5.28
2022-12-28T12:34:55.629Z,5.26
2022-12-28T12:37:38.841Z,5.24
2022-12-28T12:40:06.605Z,5.22
2022-12-28T12:42:55.706Z,5.24
2022-12-28T12:45:38.356Z,5.27
2022-12-28T12:48:25.182Z,5.30
2022-12-28T12:51:28.200Z,5.33
2022-12-28T12:53:56.031Z,5.36
2022-12-28T12:56:29.729Z,5.37
2022-12-28T12:59:23.533Z,5.38
2022-12-28T13:01:57.499Z,5.37
2022-12-28T13:04:27.637Z,5.35
2022-12-28T13:07:05.502Z,5.37
2022-12-28T13:09:34.504Z,5.37
2022-12-28T13:12:02.691Z,5.38
2022-12-28T13:14:30.629Z,5.38
2022-12-28T13:16:59.456Z,5.39
2022-12-28T13:19:28.939Z,5.40
2022-12-28T13:21:59.221Z,5.39
2022-12-28T13:24:34.526Z,5.36
2022-12-28T13:27:07.624Z,5.40
2022-12-28T13:29:40.077Z,5.39
2022-12-28T13:32:24.818Z,5.40
2022-12-28T13:34:52.685Z,5.37
2022-12-28T13:37:21.095Z,5.37
2022-12-28T13:39:48.784Z,5.34
2022-12-28T13:42:19.257Z,5.28
2022-12-28T13:45:11.685Z,5.30
2022-12-28T13:47:47.810Z,5.31
2022-12-28T13:50:30.518Z,5.29
2022-12-28T13:53:11.885Z,5.27
2022-12-28T13:55:51.585Z,5.26
2022-12-28T13:58:33.274Z,5.25
2022-12-28T14:01:03.004Z,5.24
2022-12-28T14:03:37.409Z,5.21
2022-12-28T14:06:07.355Z,5.21
2022-12-28T14:08:37.227Z,5.20
2022-12-28T14:11:05.937Z,5.18
2022-12-28T14:13:34.111Z,5.16
2022-12-28T14:16:02.825Z,5.11
2022-12-28T14:18:31.861Z,5.09
2022-12-28T14:21:00.228Z,5.03
2022-12-28T14:23:32.981Z,5.00
2022-12-28T14:26:02.934Z,4.96
2022-12-28T14:28:44.166Z,4.92
2022-12-28T14:31:13.989Z,4.88
2022-12-28T14:34:20.237Z,4.84
2022-12-28T14:36:49.464Z,4.79
2022-12-28T14:39:26.179Z,4.74
2022-12-28T14:41:54.808Z,4.69
2022-12-28T14:44:40.412Z,4.66
2022-12-28T14:47:45.774Z,4.60
2022-12-28T14:50:29.268Z,4.54
2022-12-28T14:53:26.254Z,4.47
2022-12-28T14:59:04.330Z,4.38
2022-12-28T15:01:43.595Z,4.31
2022-12-28T15:04:39.673Z,4.27
2022-12-28T15:07:09.501Z,4.21
2022-12-28T15:09:37.351Z,4.10
2022-12-28T15:12:13.243Z,4.10
2022-12-28T15:14:42.194Z,4.04
2022-12-28T15:17:10.345Z,4.00
2022-12-28T15:19:38.352Z,3.96
2022-12-28T15:22:06.211Z,3.92
2022-12-28T15:24:34.894Z,3.86
2022-12-28T15:27:03.490Z,3.82
2022-12-28T15:30:03.900Z,3.77
2022-12-28T15:32:19.413Z,3.55
2022-12-28T15:34:47.208Z,3.43
2022-12-28T15:37:14.754Z,3.35
2022-12-28T15:39:42.316Z,3.28
2022-12-28T15:42:10.148Z,3.23
2022-12-28T15:44:37.707Z,3.21
2022-12-28T15:47:05.296Z,3.17
2022-12-28T15:49:33.200Z,3.15
2022-12-28T15:52:00.774Z,3.07
2022-12-28T15:54:28.343Z,2.96
2022-12-28T15:56:56.636Z,3.03
2022-12-28T15:59:24.329Z,2.95
2022-12-28T16:01:52.151Z,2.93
2022-12-28T16:04:20.324Z,2.83
2022-12-28T16:06:47.876Z,2.81
2022-12-28T16:09:15.441Z,2.66
2022-12-28T16:11:43.490Z,2.59
2022-12-28T16:14:15.783Z,2.44
2022-12-28T16:16:44.777Z,2.44
2022-12-28T16:19:14.097Z,2.32
2022-12-28T16:21:42.449Z,2.34
2022-12-28T16:24:10.725Z,2.36
2022-12-28T16:26:38.444Z,2.13
2022-12-28T16:29:06.065Z,2.07
2022-12-28T16:31:35.860Z,1.94
2022-12-28T16:34:05.960Z,2.00
2022-12-28T16:36:34.500Z,1.97
2022-12-28T16:39:04.308Z,1.97
2022-12-28T16:41:36.467Z,2.01
2022-12-28T16:44:07.065Z,2.06
2022-12-28T16:46:34.575Z,2.08
2022-12-28T16:49:02.711Z,2.05
2022-12-28T16:51:31.269Z,1.97
2022-12-28T16:53:58.980Z,1.97
2022-12-28T16:56:26.618Z,1.98
2022-12-28T16:58:58.580Z,1.93
2022-12-28T17:01:26.845Z,1.94
2022-12-28T17:04:01.738Z,1.82
2022-12-28T17:06:31.341Z,1.77
2022-12-28T17:09:02.039Z,1.58
2022-12-28T17:11:29.644Z,1.43
2022-12-28T17:14:05.877Z,1.46
2022-12-28T17:16:38.541Z,1.42
2022-12-28T17:19:06.745Z,1.48
2022-12-28T17:21:35.563Z,1.47
2022-12-28T17:24:03.553Z,1.53
2022-12-28T17:26:31.372Z,1.48
2022-12-28T17:28:59.545Z,1.39
2022-12-28T17:31:27.710Z,1.38
2022-12-28T17:33:58.023Z,1.28
2022-12-28T17:36:26.471Z,1.28
2022-12-28T17:38:54.123Z,1.21
2022-12-28T17:41:24.859Z,1.15
2022-12-28T17:43:54.705Z,1.12
2022-12-28T17:46:24.836Z,1.08
2022-12-28T17:48:57.080Z,1.08
2022-12-28T17:51:25.631Z,1.11
2022-12-28T17:53:55.182Z,1.16
2022-12-28T17:56:22.985Z,1.20
2022-12-28T17:58:54.393Z,1.24
2022-12-28T18:01:22.310Z,1.27
2022-12-28T18:03:50.327Z,1.27
2022-12-28T18:06:17.981Z,1.23
2022-12-28T18:08:45.655Z,1.24
2022-12-28T18:11:13.499Z,1.30
2022-12-28T18:13:42.613Z,1.29
2022-12-28T18:16:13.762Z,1.27
2022-12-28T18:18:42.201Z,1.00
2022-12-28T18:21:20.827Z,0.79
2022-12-28T18:23:51.050Z,0.78
2022-12-28T18:26:21.326Z,0.64
2022-12-28T18:28:49.602Z,0.63
2022-12-28T18:31:17.535Z,0.66
2022-12-28T18:33:45.489Z,0.63
2022-12-28T18:36:17.320Z,0.70
2022-12-28T18:38:46.809Z,0.69
2022-12-28T18:41:16.695Z,0.67
2022-12-28T18:43:44.421Z,0.57
2022-12-28T18:46:12.164Z,0.58
2022-12-28T18:48:41.089Z,0.62
2022-12-28T18:51:11.794Z,0.64
2022-12-28T18:53:39.782Z,0.63
2022-12-28T18:56:13.385Z,0.60
2022-12-28T18:58:41.537Z,0.49
2022-12-28T19:01:32.909Z,0.52
2022-12-28T19:04:02.806Z,0.52
2022-12-28T19:06:30.909Z,0.43
2022-12-28T19:08:59.992Z,0.37
2022-12-28T19:11:28.184Z,0.33
2022-12-28T19:13:56.799Z,0.33
2022-12-28T19:16:30.921Z,0.38
2022-12-28T19:19:00.226Z,0.43
2022-12-28T19:21:30.199Z,0.50
2022-12-28T19:24:03.128Z,0.44
2022-12-28T19:26:32.555Z,0.48
2022-12-28T19:29:00.591Z,0.53
2022-12-28T19:31:28.425Z,0.57
2022-12-28T19:33:56.369Z,0.56
2022-12-28T19:36:24.069Z,0.62
2022-12-28T19:38:55.660Z,0.63
2022-12-28T19:41:24.183Z,0.65
2022-12-28T19:43:52.147Z,0.57
2022-12-28T19:46:22.620Z,0.60
2022-12-28T19:48:53.612Z,0.56
2022-12-28T19:51:25.808Z,0.51
2022-12-28T19:53:57.946Z,0.51
2022-12-28T19:56:25.533Z,0.51
2022-12-28T19:58:57.724Z,0.27
2022-12-28T20:01:29.730Z,-0.06
2022-12-28T20:03:59.400Z,-0.16
2022-12-28T20:06:28.984Z,-0.03
2022-12-28T20:09:01.289Z,0.12
2022-12-28T20:11:29.878Z,0.14
2022-12-28T20:13:59.656Z,-0.15
2022-12-28T20:16:28.855Z,-0.18
2022-12-28T20:18:56.744Z,-0.12
2022-12-28T20:21:25.848Z,-0.10
2022-12-28T20:23:54.599Z,-0.02
2022-12-28T20:26:24.984Z,-0.09
2022-12-28T20:28:53.164Z,-0.07
2022-12-28T20:31:20.992Z,-0.04
2022-12-28T20:33:48.885Z,0.03
2022-12-28T20:36:22.311Z,0.01
2022-12-28T20:38:50.660Z,-0.13
2022-12-28T20:41:48.674Z,-0.06
2022-12-28T20:44:22.186Z,-0.08
2022-12-28T20:46:50.304Z,-0.11
2022-12-28T20:49:18.010Z,-0.07
2022-12-28T20:51:47.866Z,-0.07
2022-12-28T20:54:15.935Z,-0.16
2022-12-28T20:56:45.021Z,-0.13
2022-12-28T20:59:16.000Z,-0.17
2022-12-28T21:01:43.933Z,-0.08
2022-12-28T21:04:11.995Z,-0.05
2022-12-28T21:06:39.800Z,-0.05
2022-12-28T21:09:07.404Z,0.00
2022-12-28T21:11:35.157Z,0.05
2022-12-28T21:14:03.182Z,0.08
2022-12-28T21:16:30.865Z,0.10
2022-12-28T21:18:58.406Z,0.13
2022-12-28T21:21:26.495Z,0.12
2022-12-28T21:23:54.096Z,0.04
2022-12-28T21:26:22.066Z,0.02
2022-12-28T21:28:50.070Z,0.02
2022-12-28T21:31:17.865Z,0.02
2022-12-28T21:33:45.611Z,-0.07
2022-12-28T21:36:14.642Z,-0.15
2022-12-28T21:38:43.213Z,-0.23
2022-12-28T21:41:16.529Z,-0.29
2022-12-28T21:43:44.346Z,-0.39
2022-12-28T21:46:14.030Z,-0.48
2022-12-28T21:48:42.070Z,-0.44
2022-12-28T21:51:31.393Z,-0.39
2022-12-28T21:54:00.231Z,-0.52
2022-12-28T21:56:28.831Z,-0.55
2022-12-28T21:58:57.417Z,-0.56
2022-12-28T22:01:45.034Z,-0.50
2022-12-28T22:04:39.465Z,-0.49
2022-12-28T22:07:09.194Z,-0.51
2022-12-28T22:09:56.243Z,-0.46
2022-12-28T22:12:37.451Z,-0.41
2022-12-28T22:15:36.255Z,-0.40
2022-12-28T22:18:12.772Z,-0.37
2022-12-28T22:20:47.723Z,-0.32
2022-12-28T22:23:15.991Z,-0.34
2022-12-28T22:25:44.184Z,-0.52
2022-12-28T22:28:12.850Z,-0.65
2022-12-28T22:30:40.434Z,-0.60
2022-12-28T22:33:08.410Z,-0.78
2022-12-28T22:35:36.133Z,-0.81
2022-12-28T22:38:03.853Z,-0.77
2022-12-28T22:40:31.451Z,-0.81
2022-12-28T22:42:59.333Z,-0.82
2022-12-28T22:45:26.908Z,-0.90
2022-12-28T22:47:59.537Z,-0.91
2022-12-28T22:50:28.285Z,-0.79
2022-12-28T22:52:57.262Z,-0.70
2022-12-28T22:55:24.839Z,-0.64
2022-12-28T22:57:53.276Z,-0.60
2022-12-28T23:00:20.969Z,-0.61
2022-12-28T23:02:48.705Z,-0.73
2022-12-28T23:05:16.787Z,-0.76
2022-12-28T23:07:44.308Z,-0.85
2022-12-28T23:10:11.927Z,-0.81
2022-12-28T23:12:39.910Z,-0.81
2022-12-28T23:15:19.093Z,-0.86
2022-12-28T23:17:48.548Z,-0.83
2022-12-28T23:20:35.176Z,-0.78
2022-12-28T23:23:21.739Z,-0.72
2022-12-28T23:26:08.079Z,-0.65
2022-12-28T23:28:36.275Z,-0.62
2022-12-28T23:31:04.569Z,-0.60
2022-12-28T23:33:32.233Z,-0.57
2022-12-28T23:36:04.327Z,-0.55
2022-12-28T23:38:32.845Z,-0.55
2022-12-28T23:41:24.283Z,-0.58
2022-12-28T23:43:52.418Z,-0.56
2022-12-28T23:46:20.369Z,-0.53
2022-12-28T23:48:48.210Z,-0.51
2022-12-28T23:51:18.022Z,-0.52
2022-12-28T23:53:46.062Z,-0.68
2022-12-28T23:56:13.683Z,-0.82
2022-12-28T23:58:41.202Z,-0.91
